Time;durP1;ratioP1;P1;durP2;ratioP2;P2;SDS_P1;SDS_P2;PMS_P1;PMS_P2;Temp;Humidity;BMP_temperature;BMP_pressure;BME280_temperature;BME280_humidity;BME280_pressure;Samples;Min_cycle;Max_cycle;Signal;HPM_P1;HPM_P2
2021/07/04 00:00:13;;;;;;;1.48;0.70;;;9.40;99.90;;;;;;5068162;28;20485;-84
2021/07/04 00:02:40;;;;;;;1.63;0.90;;;9.40;99.90;;;;;;5049657;28;20391;-83
2021/07/04 00:05:09;;;;;;;1.85;0.88;;;9.50;99.90;;;;;;5052391;28;20395;-84
2021/07/04 00:07:41;;;;;;;2.00;0.57;;;9.50;99.90;;;;;;5052197;28;20559;-83
2021/07/04 00:10:10;;;;;;;0.93;0.60;;;9.50;99.90;;;;;;5059994;28;20386;-83
2021/07/04 00:12:37;;;;;;;1.75;0.82;;;9.60;99.90;;;;;;5068203;28;20388;-84
2021/07/04 00:15:08;;;;;;;2.13;0.80;;;9.70;99.90;;;;;;5054098;28;20393;-87
2021/07/04 00:17:35;;;;;;;3.13;1.13;;;10.00;99.90;;;;;;5057272;28;20390;-85
2021/07/04 00:20:10;;;;;;;1.07;0.90;;;10.30;99.90;;;;;;5053684;28;20731;-84
2021/07/04 00:22:37;;;;;;;2.00;1.00;;;10.60;99.90;;;;;;5055076;28;21465;-83
2021/07/04 00:25:07;;;;;;;1.30;1.20;;;11.30;99.90;;;;;;5057477;28;20458;-84
2021/07/04 00:27:34;;;;;;;1.58;0.90;;;11.80;99.90;;;;;;5056756;28;20469;-82
2021/07/04 00:30:01;;;;;;;2.10;0.73;;;11.80;99.90;;;;;;5071759;28;20451;-84
2021/07/04 00:32:28;;;;;;;3.20;0.80;;;11.60;99.80;;;;;;5059671;28;20437;-86
2021/07/04 00:34:55;;;;;;;0.90;0.70;;;11.30;99.90;;;;;;5051856;28;20380;-84
2021/07/04 00:37:22;;;;;;;1.35;0.52;;;11.00;99.90;;;;;;5051573;28;20372;-85
2021/07/04 00:39:49;;;;;;;2.15;0.40;;;10.80;99.90;;;;;;5051981;28;20400;-88
2021/07/04 00:42:16;;;;;;;1.17;0.45;;;10.70;99.90;;;;;;5054814;28;20381;-85
2021/07/04 00:44:43;;;;;;;2.65;0.63;;;10.60;99.90;;;;;;5053749;28;20871;-86
2021/07/04 00:47:10;;;;;;;1.13;0.35;;;10.50;99.90;;;;;;5058826;28;20425;-83
2021/07/04 00:49:37;;;;;;;1.48;0.40;;;10.50;99.90;;;;;;5052069;28;20448;-85
2021/07/04 00:52:05;;;;;;;2.08;0.40;;;10.50;99.90;;;;;;5051027;28;20379;-86
2021/07/04 00:54:32;;;;;;;1.20;0.40;;;10.50;99.90;;;;;;5052316;28;20478;-84
2021/07/04 00:56:59;;;;;;;2.53;0.45;;;10.50;99.90;;;;;;5052755;28;20387;-81
2021/07/04 00:59:26;;;;;;;0.80;0.38;;;10.40;99.90;;;;;;5070177;28;20401;-84
2021/07/04 01:01:58;;;;;;;3.65;0.40;;;10.50;99.90;;;;;;5073735;28;20455;-83
2021/07/04 01:04:29;;;;;;;2.30;0.47;;;10.50;99.90;;;;;;5073162;28;20425;-85
2021/07/04 01:06:56;;;;;;;0.95;0.38;;;10.60;99.90;;;;;;5062245;28;20916;-83
2021/07/04 01:09:24;;;;;;;0.85;0.35;;;10.60;99.90;;;;;;5073442;28;20416;-86
2021/07/04 01:11:51;;;;;;;1.90;0.32;;;10.60;99.90;;;;;;5071609;28;20726;-84
2021/07/04 01:14:18;;;;;;;1.00;0.30;;;10.70;99.90;;;;;;5066450;28;20384;-86
2021/07/04 01:16:46;;;;;;;0.65;0.30;;;10.70;99.90;;;;;;5063501;28;20482;-84
2021/07/04 01:19:18;;;;;;;0.60;0.30;;;10.60;99.90;;;;;;5067759;28;20420;-82
2021/07/04 01:21:46;;;;;;;1.13;0.40;;;10.60;99.90;;;;;;5071724;28;20420;-85
2021/07/04 01:24:14;;;;;;;1.63;0.40;;;10.60;99.70;;;;;;5062886;28;20833;-84
2021/07/04 01:26:41;;;;;;;0.82;0.40;;;10.60;99.70;;;;;;5080075;28;20393;-86
2021/07/04 01:29:08;;;;;;;1.80;0.40;;;10.60;99.50;;;;;;5079541;28;20390;-85
2021/07/04 01:31:35;;;;;;;4.13;0.60;;;10.60;99.60;;;;;;5070387;28;20463;-83
2021/07/04 01:34:02;;;;;;;1.02;0.30;;;10.70;99.90;;;;;;5054061;28;20403;-83
2021/07/04 01:36:30;;;;;;;2.47;0.50;;;10.70;99.90;;;;;;5055714;28;20387;-84
2021/07/04 01:38:57;;;;;;;1.60;0.50;;;10.80;99.70;;;;;;5060369;28;22222;-83
2021/07/04 01:41:25;;;;;;;1.17;0.30;;;10.80;99.90;;;;;;5070351;28;20426;-80
2021/07/04 01:43:52;;;;;;;1.50;0.35;;;10.80;99.90;;;;;;5070062;28;20404;-82
2021/07/04 01:46:21;;;;;;;1.60;0.40;;;10.90;99.50;;;;;;5061258;28;20395;-82
2021/07/04 01:48:49;;;;;;;1.05;0.63;;;11.00;99.90;;;;;;5064790;28;20453;-83
2021/07/04 01:51:16;;;;;;;0.77;0.28;;;11.00;99.90;;;;;;5070069;28;20394;-83
2021/07/04 01:53:44;;;;;;;0.40;0.20;;;11.00;99.80;;;;;;5073675;28;20393;-82
2021/07/04 01:56:11;;;;;;;1.42;0.30;;;11.10;99.50;;;;;;5078706;28;20469;-81
2021/07/04 01:58:41;;;;;;;1.45;0.25;;;11.20;99.40;;;;;;5066395;28;20398;-84
2021/07/04 02:01:09;;;;;;;0.93;0.45;;;11.20;99.20;;;;;;5069573;28;20406;-83
2021/07/04 02:03:36;;;;;;;2.22;0.50;;;11.20;99.20;;;;;;5055217;28;20759;-83
2021/07/04 02:06:04;;;;;;;2.33;0.40;;;11.10;99.70;;;;;;5050253;28;20920;-82
2021/07/04 02:08:31;;;;;;;1.37;0.50;;;11.20;99.80;;;;;;5050290;28;20407;-83
2021/07/04 02:10:59;;;;;;;1.27;0.50;;;11.20;99.50;;;;;;5060448;28;20788;-84
2021/07/04 02:13:26;;;;;;;1.15;0.38;;;11.20;99.50;;;;;;5060146;28;20395;-84
2021/07/04 02:15:53;;;;;;;2.53;0.40;;;11.20;99.20;;;;;;5052891;28;20478;-85
2021/07/04 02:18:21;;;;;;;2.40;0.70;;;11.20;98.70;;;;;;5057900;28;20396;-85
2021/07/04 02:20:51;;;;;;;1.85;0.45;;;11.30;98.40;;;;;;5051556;28;20441;-83
2021/07/04 02:23:32;;;;;;;1.67;0.55;;;11.40;99.40;;;;;;5053596;28;20390;-82
2021/07/04 02:25:59;;;;;;;2.20;0.70;;;11.40;99.00;;;;;;5057190;28;20391;-83
2021/07/04 02:28:30;;;;;;;1.40;0.70;;;11.40;98.70;;;;;;5061136;28;20441;-82
2021/07/04 02:30:58;;;;;;;1.40;0.50;;;11.50;99.20;;;;;;5059305;28;20391;-83
2021/07/04 02:33:26;;;;;;;3.30;0.75;;;11.50;99.50;;;;;;5055501;28;20380;-83
2021/07/04 02:35:56;;;;;;;2.65;0.60;;;11.60;99.20;;;;;;5049512;28;20380;-82
2021/07/04 02:38:24;;;;;;;1.33;0.50;;;11.70;97.20;;;;;;5050480;28;20457;-83
2021/07/04 02:40:53;;;;;;;1.10;0.40;;;11.80;99.00;;;;;;5067870;28;20417;-84
2021/07/04 02:43:22;;;;;;;1.20;0.30;;;11.80;98.40;;;;;;5057134;28;20789;-83
2021/07/04 02:45:50;;;;;;;0.55;0.30;;;11.70;98.70;;;;;;5051716;28;20907;-83
2021/07/04 02:48:17;;;;;;;1.80;0.40;;;11.90;98.00;;;;;;5051792;28;20380;-83
2021/07/04 02:50:46;;;;;;;1.30;0.30;;;11.90;98.60;;;;;;5059584;28;20423;-81
2021/07/04 02:53:14;;;;;;;0.95;0.30;;;11.90;98.70;;;;;;5053826;28;20416;-82
2021/07/04 02:55:42;;;;;;;0.75;0.35;;;12.00;98.50;;;;;;5049273;28;20399;-82
2021/07/04 02:58:10;;;;;;;1.23;0.45;;;12.00;97.60;;;;;;5050514;28;20387;-85
2021/07/04 03:00:39;;;;;;;1.05;0.45;;;12.10;98.20;;;;;;5048943;28;20415;-80
2021/07/04 03:03:06;;;;;;;2.58;0.50;;;12.10;98.20;;;;;;5058149;28;20545;-85
2021/07/04 03:05:34;;;;;;;0.80;0.33;;;12.10;98.70;;;;;;5050313;28;20405;-82
2021/07/04 03:08:01;;;;;;;2.15;0.60;;;12.20;98.40;;;;;;5048818;28;20393;-83
2021/07/04 03:10:28;;;;;;;2.00;0.60;;;12.30;98.30;;;;;;5058425;28;20453;-84
2021/07/04 03:12:56;;;;;;;4.00;0.73;;;12.20;98.20;;;;;;5049683;28;20453;-81
2021/07/04 03:15:23;;;;;;;3.40;0.60;;;12.30;96.80;;;;;;5050768;28;20759;-83
2021/07/04 03:17:50;;;;;;;1.13;0.32;;;12.30;98.10;;;;;;5055224;28;20445;-84
2021/07/04 03:20:18;;;;;;;2.67;0.40;;;12.40;98.20;;;;;;5068958;28;20493;-83
2021/07/04 03:22:47;;;;;;;2.33;0.40;;;12.50;98.60;;;;;;5065974;28;20439;-84
2021/07/04 03:25:15;;;;;;;0.77;0.40;;;12.50;98.00;;;;;;5068020;28;20414;-82
2021/07/04 03:27:43;;;;;;;1.27;0.60;;;12.50;97.20;;;;;;5063420;28;20403;-82
2021/07/04 03:30:17;;;;;;;1.65;0.40;;;12.50;96.40;;;;;;5051100;28;20467;-85
2021/07/04 03:32:44;;;;;;;0.52;0.40;;;12.40;97.80;;;;;;5054233;28;20395;-87
2021/07/04 03:35:13;;;;;;;2.10;0.53;;;12.40;97.30;;;;;;5057041;28;20928;-82
2021/07/04 03:37:41;;;;;;;1.48;0.50;;;12.40;97.60;;;;;;5056719;28;20394;-84
2021/07/04 03:40:12;;;;;;;1.52;0.63;;;12.30;97.40;;;;;;5064010;28;20396;-81
2021/07/04 03:42:39;;;;;;;1.02;0.40;;;12.30;97.90;;;;;;5053115;28;20421;-81
2021/07/04 03:45:07;;;;;;;2.00;0.75;;;12.30;97.10;;;;;;5054903;28;20884;-82
2021/07/04 03:47:35;;;;;;;0.90;0.40;;;12.40;97.10;;;;;;5055490;28;20755;-84
2021/07/04 03:50:04;;;;;;;1.67;0.50;;;12.40;98.00;;;;;;5056849;28;20434;-82
2021/07/04 03:52:32;;;;;;;1.47;0.60;;;12.40;97.40;;;;;;5053248;28;20430;-82
2021/07/04 03:54:59;;;;;;;3.17;0.68;;;12.40;97.60;;;;;;5070859;28;20844;-83
2021/07/04 03:57:28;;;;;;;1.48;0.55;;;12.40;96.50;;;;;;5067585;28;20399;-82
2021/07/04 03:59:58;;;;;;;0.90;0.50;;;12.40;97.00;;;;;;5052964;28;20461;-82
2021/07/04 04:02:26;;;;;;;1.33;0.60;;;12.50;96.90;;;;;;5053234;28;20465;-81
2021/07/04 04:04:58;;;;;;;1.48;0.60;;;12.50;96.90;;;;;;5059971;28;20401;-81
2021/07/04 04:07:26;;;;;;;1.20;0.60;;;12.50;97.40;;;;;;5052740;28;20475;-82
2021/07/04 04:09:54;;;;;;;1.50;0.60;;;12.50;97.30;;;;;;5050829;28;20473;-81
2021/07/04 04:12:21;;;;;;;1.50;0.60;;;12.50;96.60;;;;;;5052837;28;20392;-83
2021/07/04 04:14:49;;;;;;;1.17;0.60;;;12.60;97.10;;;;;;5058848;28;20400;-86
2021/07/04 04:17:16;;;;;;;1.77;0.45;;;12.60;96.90;;;;;;5068676;28;20916;-85
2021/07/04 04:19:44;;;;;;;1.27;0.60;;;12.60;96.90;;;;;;5069816;28;20484;-82
2021/07/04 04:22:11;;;;;;;1.87;0.83;;;12.60;95.90;;;;;;5057171;28;20406;-83
2021/07/04 04:24:39;;;;;;;1.50;0.70;;;12.50;96.40;;;;;;5053243;28;20413;-82
2021/07/04 04:27:06;;;;;;;2.08;0.52;;;12.50;97.20;;;;;;5052119;28;20470;-82
2021/07/04 04:29:34;;;;;;;1.98;0.80;;;12.50;98.00;;;;;;5053715;28;20386;-83
2021/07/04 04:32:01;;;;;;;2.08;0.60;;;12.50;97.00;;;;;;5071922;28;21231;-83
2021/07/04 04:34:28;;;;;;;1.63;0.70;;;12.50;96.70;;;;;;5053806;28;20399;-83
2021/07/04 04:36:56;;;;;;;0.95;0.68;;;12.50;97.10;;;;;;5051961;28;20371;-83
2021/07/04 04:39:23;;;;;;;1.50;0.60;;;12.50;96.80;;;;;;5051380;28;20406;-82
2021/07/04 04:41:50;;;;;;;4.10;1.17;;;12.40;96.90;;;;;;5071767;28;20398;-84
2021/07/04 04:44:18;;;;;;;3.15;0.82;;;12.40;97.70;;;;;;5064720;28;20380;-84
2021/07/04 04:46:46;;;;;;;2.13;0.80;;;12.50;95.90;;;;;;5051385;28;20383;-82
2021/07/04 04:49:14;;;;;;;1.42;0.68;;;12.50;96.80;;;;;;5051754;28;20368;-82
2021/07/04 04:51:41;;;;;;;1.67;0.77;;;12.50;97.10;;;;;;5052103;28;20935;-82
2021/07/04 04:54:09;;;;;;;2.25;0.65;;;12.50;97.70;;;;;;5051340;28;20392;-83
2021/07/04 04:56:37;;;;;;;1.20;0.50;;;12.40;95.60;;;;;;5051585;28;20380;-83
2021/07/04 04:59:04;;;;;;;1.20;0.50;;;12.40;97.00;;;;;;5051111;28;20375;-84
2021/07/04 05:01:32;;;;;;;2.37;0.50;;;12.40;95.80;;;;;;5051563;28;20534;-83
2021/07/04 05:04:00;;;;;;;3.30;0.60;;;12.40;96.50;;;;;;5062840;28;20478;-83
2021/07/04 05:06:27;;;;;;;1.23;0.70;;;12.30;96.30;;;;;;5052809;28;20387;-83
2021/07/04 05:08:54;;;;;;;2.45;0.65;;;12.30;96.80;;;;;;5054015;28;20391;-82
2021/07/04 05:11:22;;;;;;;1.20;0.80;;;12.30;97.40;;;;;;5056728;28;20406;-83
2021/07/04 05:13:49;;;;;;;2.60;0.83;;;12.40;97.30;;;;;;5063750;28;20435;-83
2021/07/04 05:16:17;;;;;;;2.28;0.95;;;12.30;97.20;;;;;;5058804;28;20406;-84
2021/07/04 05:18:44;;;;;;;1.10;0.50;;;12.30;97.70;;;;;;5056432;28;20462;-87
2021/07/04 05:21:12;;;;;;;3.17;0.80;;;12.20;98.50;;;;;;5052165;28;20758;-83
2021/07/04 05:23:39;;;;;;;1.17;0.65;;;12.20;98.60;;;;;;5055619;28;20416;-83
2021/07/04 05:26:06;;;;;;;1.93;0.77;;;12.10;98.40;;;;;;5052575;28;20814;-84
2021/07/04 05:28:33;;;;;;;2.50;0.90;;;12.10;99.10;;;;;;5050748;28;20399;-83
2021/07/04 05:31:01;;;;;;;0.90;0.57;;;12.10;99.70;;;;;;5050629;28;20394;-81
2021/07/04 05:33:28;;;;;;;3.05;0.77;;;12.00;99.10;;;;;;5052898;28;20391;-85
2021/07/04 05:35:55;;;;;;;1.55;0.60;;;11.90;99.30;;;;;;5063251;28;20901;-84
2021/07/04 05:38:30;;;;;;;1.27;0.80;;;11.90;99.50;;;;;;5067073;28;20416;-82
2021/07/04 05:40:57;;;;;;;1.58;1.00;;;11.80;99.90;;;;;;5050888;28;20408;-82
2021/07/04 05:43:24;;;;;;;1.98;0.82;;;11.80;99.90;;;;;;5065421;28;20767;-82
2021/07/04 05:45:53;;;;;;;1.45;0.70;;;11.80;99.90;;;;;;5061467;28;20759;-85
2021/07/04 05:48:20;;;;;;;1.67;0.90;;;11.70;99.90;;;;;;5058501;28;20395;-84
2021/07/04 05:50:51;;;;;;;1.52;0.80;;;11.70;99.50;;;;;;5066922;28;20406;-84
2021/07/04 05:53:18;;;;;;;1.55;1.10;;;11.70;99.90;;;;;;5064243;28;20867;-84
2021/07/04 05:55:45;;;;;;;2.42;1.17;;;11.70;99.90;;;;;;5076147;28;20368;-84
2021/07/04 05:58:13;;;;;;;2.15;1.27;;;11.60;99.90;;;;;;5079601;28;20385;-86
2021/07/04 06:00:41;;;;;;;3.35;1.20;;;11.60;99.90;;;;;;5088243;28;20443;-84
2021/07/04 06:03:08;;;;;;;1.48;0.80;;;11.60;99.90;;;;;;5056842;28;20498;-83
2021/07/04 06:05:35;;;;;;;2.35;0.90;;;11.50;99.90;;;;;;5066507;28;20386;-84
2021/07/04 06:08:03;;;;;;;1.90;1.00;;;11.40;99.90;;;;;;5061417;28;20385;-83
2021/07/04 06:10:31;;;;;;;1.90;1.10;;;11.30;99.90;;;;;;5052904;28;20392;-84
2021/07/04 06:12:58;;;;;;;4.15;0.80;;;11.40;99.90;;;;;;5050412;28;20396;-83
2021/07/04 06:15:25;;;;;;;1.17;0.80;;;11.30;99.90;;;;;;5057271;28;20955;-84
2021/07/04 06:17:53;;;;;;;2.22;0.80;;;11.30;99.90;;;;;;5056006;28;20394;-83
2021/07/04 06:20:23;;;;;;;1.65;0.63;;;11.20;99.90;;;;;;5052699;28;21521;-85
2021/07/04 06:22:54;;;;;;;1.27;0.80;;;11.20;99.90;;;;;;5054662;28;20408;-84
2021/07/04 06:25:22;;;;;;;1.80;1.08;;;11.20;99.90;;;;;;5050294;28;20860;-83
2021/07/04 06:27:50;;;;;;;1.55;0.90;;;11.10;99.90;;;;;;5056643;28;20384;-83
2021/07/04 06:30:18;;;;;;;6.73;4.57;;;11.00;99.90;;;;;;5049523;28;20375;-85
2021/07/04 06:32:46;;;;;;;2.97;2.20;;;11.00;99.90;;;;;;5057362;28;20432;-85
2021/07/04 06:35:14;;;;;;;3.10;1.20;;;10.90;99.90;;;;;;5064566;28;20419;-83
2021/07/04 06:37:46;;;;;;;4.68;1.40;;;10.80;99.90;;;;;;5067713;28;20539;-83
2021/07/04 06:40:14;;;;;;;1.98;0.90;;;10.80;99.90;;;;;;5070430;28;20393;-83
2021/07/04 06:42:42;;;;;;;2.00;1.00;;;10.70;99.90;;;;;;5062090;28;20490;-87
2021/07/04 06:45:11;;;;;;;3.00;1.35;;;10.70;99.90;;;;;;5052643;28;22080;-91
2021/07/04 06:47:41;;;;;;;1.85;1.17;;;10.60;99.90;;;;;;5070941;28;20397;-87
2021/07/04 06:50:10;;;;;;;1.85;1.08;;;10.50;99.90;;;;;;5059528;28;20905;-84
2021/07/04 06:52:37;;;;;;;1.83;1.00;;;10.40;99.90;;;;;;5051613;28;20381;-84
2021/07/04 06:55:09;;;;;;;1.70;1.10;;;10.30;99.90;;;;;;5065884;28;20465;-83
2021/07/04 06:57:36;;;;;;;2.20;1.42;;;10.20;99.90;;;;;;5050189;28;20392;-84
2021/07/04 07:00:15;;;;;;;2.50;1.50;;;10.00;99.90;;;;;;5052381;28;20404;-83
2021/07/04 07:02:46;;;;;;;3.30;1.55;;;10.00;99.90;;;;;;5051945;28;20470;-83
2021/07/04 07:05:15;;;;;;;3.30;1.88;;;9.90;99.90;;;;;;5049442;28;20765;-84
2021/07/04 07:07:43;;;;;;;3.60;2.50;;;9.80;99.90;;;;;;5053752;28;20378;-84
2021/07/04 07:10:12;;;;;;;4.82;3.00;;;9.80;99.90;;;;;;5054710;28;20396;-83
2021/07/04 07:12:40;;;;;;;5.97;3.65;;;9.70;99.90;;;;;;5048426;28;20454;-84
2021/07/04 07:15:09;;;;;;;3.78;3.45;;;9.60;99.90;;;;;;5049284;28;20407;-84
2021/07/04 07:17:39;;;;;;;6.30;3.65;;;9.60;99.90;;;;;;5049741;28;20382;-84
2021/07/04 07:20:08;;;;;;;4.75;3.55;;;9.50;99.90;;;;;;5055885;28;20428;-84
2021/07/04 07:22:36;;;;;;;5.78;3.65;;;9.40;99.90;;;;;;5069090;28;20376;-85
2021/07/04 07:25:08;;;;;;;4.93;3.60;;;9.40;99.90;;;;;;5057496;28;20391;-84
2021/07/04 07:27:36;;;;;;;3.83;3.43;;;9.30;99.90;;;;;;5049071;28;20371;-86
2021/07/04 07:30:07;;;;;;;5.03;3.20;;;9.30;99.90;;;;;;5049359;28;20399;-85
2021/07/04 07:32:36;;;;;;;4.00;3.10;;;9.30;99.90;;;;;;5051800;28;20389;-84
2021/07/04 07:35:05;;;;;;;4.78;3.00;;;9.20;99.90;;;;;;5060553;28;20883;-85
2021/07/04 07:37:33;;;;;;;6.75;3.20;;;9.20;99.90;;;;;;5064382;28;20380;-86
2021/07/04 07:40:00;;;;;;;4.22;3.20;;;9.20;99.90;;;;;;5067374;28;21509;-86
2021/07/04 07:42:29;;;;;;;5.25;2.90;;;9.20;99.90;;;;;;5069418;28;20409;-84
2021/07/04 07:45:00;;;;;;;3.63;3.00;;;9.10;99.90;;;;;;5069146;28;20362;-84
2021/07/04 07:47:28;;;;;;;3.83;2.55;;;9.10;99.90;;;;;;5049938;28;20445;-85
2021/07/04 07:49:55;;;;;;;3.63;2.95;;;9.10;99.90;;;;;;5065789;28;20486;-84
2021/07/04 07:52:22;;;;;;;4.63;2.90;;;9.10;99.90;;;;;;5068802;28;20460;-83
2021/07/04 07:54:49;;;;;;;7.60;5.78;;;9.00;99.90;;;;;;5068843;28;20850;-82
2021/07/04 07:57:16;;;;;;;4.80;4.13;;;9.00;99.90;;;;;;5068835;28;20367;-87
2021/07/04 07:59:44;;;;;;;6.70;3.00;;;9.00;99.90;;;;;;5055893;28;20458;-86
2021/07/04 08:02:11;;;;;;;3.92;2.90;;;9.00;99.90;;;;;;5048856;28;20389;-85
2021/07/04 08:04:40;;;;;;;4.00;2.63;;;8.90;99.90;;;;;;5052028;28;20464;-84
2021/07/04 08:07:08;;;;;;;4.03;2.00;;;8.90;99.90;;;;;;5068620;28;20381;-85
2021/07/04 08:09:35;;;;;;;5.05;2.38;;;9.00;99.90;;;;;;5068726;28;20374;-85
2021/07/04 08:12:02;;;;;;;2.67;2.25;;;9.00;99.90;;;;;;5068815;28;20861;-84
2021/07/04 08:14:29;;;;;;;2.53;1.98;;;9.00;99.90;;;;;;5067966;28;20383;-85
2021/07/04 08:16:57;;;;;;;3.85;2.35;;;9.00;99.90;;;;;;5058861;28;20751;-85
2021/07/04 08:19:24;;;;;;;3.33;2.60;;;9.10;99.90;;;;;;5052196;28;20378;-86
2021/07/04 08:21:51;;;;;;;5.30;2.70;;;9.00;99.90;;;;;;5068770;28;20377;-85
2021/07/04 08:24:19;;;;;;;5.00;2.90;;;9.00;99.90;;;;;;5066503;28;20389;-85
2021/07/04 08:26:46;;;;;;;4.43;2.83;;;9.00;99.90;;;;;;5070182;28;20393;-87
2021/07/04 08:29:13;;;;;;;4.95;3.25;;;9.00;99.90;;;;;;5072816;28;20362;-85
2021/07/04 08:31:40;;;;;;;6.28;3.80;;;8.90;99.90;;;;;;5070496;28;20390;-87
2021/07/04 08:34:09;;;;;;;6.35;3.53;;;9.00;99.90;;;;;;5068619;28;20405;-87
2021/07/04 08:36:36;;;;;;;7.93;3.75;;;9.00;99.90;;;;;;5069298;28;20382;-86
2021/07/04 08:39:04;;;;;;;6.07;3.50;;;9.00;99.90;;;;;;5062223;28;20723;-89
2021/07/04 08:41:32;;;;;;;6.25;3.40;;;9.00;99.90;;;;;;5064671;28;20439;-88
2021/07/04 08:44:05;;;;;;;5.03;2.95;;;8.90;99.90;;;;;;5061146;28;20410;-87
2021/07/04 08:46:32;;;;;;;4.90;3.33;;;8.90;99.90;;;;;;5064127;28;20799;-87
2021/07/04 08:49:00;;;;;;;4.82;2.97;;;8.90;99.90;;;;;;5056028;28;20411;-85
2021/07/04 08:51:27;;;;;;;3.63;2.33;;;8.90;99.90;;;;;;5057650;28;20396;-86
2021/07/04 08:53:54;;;;;;;3.90;1.80;;;8.80;99.90;;;;;;5064571;28;20830;-86
2021/07/04 08:56:21;;;;;;;4.35;1.75;;;8.70;99.90;;;;;;5052677;28;20400;-86
2021/07/04 08:58:49;;;;;;;2.95;2.05;;;8.80;99.90;;;;;;5064967;28;20401;-85
2021/07/04 09:01:20;;;;;;;2.55;1.50;;;8.70;99.90;;;;;;5054819;28;20408;-83
2021/07/04 09:03:53;;;;;;;3.03;1.83;;;8.60;99.90;;;;;;5058641;28;20435;-82
2021/07/04 09:06:40;;;;;;;2.63;1.58;;;8.60;99.90;;;;;;5059969;28;20434;-83
2021/07/04 09:09:21;;;;;;;3.43;1.70;;;8.60;99.90;;;;;;5051701;28;20487;-83
2021/07/04 09:11:57;;;;;;;2.25;1.67;;;8.60;99.90;;;;;;5060457;28;20390;-83
2021/07/04 09:14:50;;;;;;;2.25;1.67;;;8.50;99.90;;;;;;5068280;28;20432;-85
2021/07/04 09:17:18;;;;;;;2.05;1.70;;;8.50;99.90;;;;;;5055903;28;20402;-85
2021/07/04 09:19:59;;;;;;;4.45;2.35;;;8.40;99.90;;;;;;5050677;28;20402;-84
2021/07/04 09:22:39;;;;;;;6.55;2.85;;;8.30;99.90;;;;;;5088791;28;20498;-86
2021/07/04 09:25:15;;;;;;;10.30;3.30;;;8.30;99.90;;;;;;5074276;28;20378;-84
2021/07/04 09:28:04;;;;;;;9.50;3.58;;;8.20;99.90;;;;;;5055886;28;20417;-85
2021/07/04 09:30:34;;;;;;;7.30;3.50;;;8.20;99.90;;;;;;5065084;28;20449;-85
2021/07/04 09:33:24;;;;;;;6.85;3.30;;;8.10;99.90;;;;;;5069071;28;20379;-85
2021/07/04 09:36:04;;;;;;;6.03;3.50;;;8.10;99.90;;;;;;5060540;28;20856;-85
2021/07/04 09:38:33;;;;;;;6.45;3.72;;;8.10;99.90;;;;;;5061367;28;20917;-86
2021/07/04 09:41:01;;;;;;;6.18;3.47;;;8.00;99.90;;;;;;5060141;28;20411;-85
2021/07/04 09:43:33;;;;;;;5.47;3.75;;;8.00;99.90;;;;;;5053076;28;20880;-85
2021/07/04 09:46:08;;;;;;;7.18;4.00;;;7.90;99.90;;;;;;5073955;28;20405;-85
2021/07/04 09:48:42;;;;;;;5.85;4.60;;;7.90;99.90;;;;;;5056637;28;20375;-85
2021/07/04 09:51:25;;;;;;;6.32;4.40;;;7.90;99.90;;;;;;5050364;28;20458;-85
2021/07/04 09:53:54;;;;;;;8.07;4.53;;;7.80;99.90;;;;;;5073917;28;20874;-86
2021/07/04 09:56:32;;;;;;;6.43;4.43;;;7.80;99.90;;;;;;5064780;28;20398;-88
2021/07/04 09:59:03;;;;;;;5.72;4.03;;;7.70;99.90;;;;;;5057509;28;20447;-85
2021/07/04 10:01:46;;;;;;;6.90;4.38;;;7.70;99.90;;;;;;5072207;28;20404;-86
2021/07/04 10:04:49;;;;;;;7.07;4.30;;;7.70;99.90;;;;;;5064704;28;20441;-85
2021/07/04 10:07:18;;;;;;;6.15;4.07;;;7.60;99.90;;;;;;5035718;28;20394;-87
2021/07/04 10:09:46;;;;;;;6.27;4.13;;;7.60;99.90;;;;;;5050242;28;20469;-84
2021/07/04 10:12:13;;;;;;;6.45;4.05;;;7.60;99.90;;;;;;5053880;28;20394;-84
2021/07/04 10:14:40;;;;;;;6.85;4.00;;;7.50;99.90;;;;;;5061430;28;20382;-86
2021/07/04 10:17:08;;;;;;;7.57;3.63;;;7.50;99.90;;;;;;5054689;28;20876;-83
2021/07/04 10:19:36;;;;;;;4.87;3.40;;;7.50;99.90;;;;;;5051027;28;20431;-87
2021/07/04 10:22:07;;;;;;;4.00;3.07;;;7.40;99.90;;;;;;5048766;28;20926;-88
2021/07/04 10:24:38;;;;;;;7.30;3.28;;;7.40;99.90;;;;;;5060884;28;20473;-86
2021/07/04 10:27:11;;;;;;;4.80;3.05;;;7.40;99.90;;;;;;5071788;28;20390;-86
2021/07/04 10:29:39;;;;;;;5.93;3.30;;;7.30;99.90;;;;;;5057404;28;20388;-84
2021/07/04 10:32:08;;;;;;;4.50;3.20;;;7.30;99.90;;;;;;5055567;28;20430;-87
2021/07/04 10:34:46;;;;;;;4.20;3.13;;;7.30;99.90;;;;;;5066177;28;20469;-86
2021/07/04 10:37:15;;;;;;;4.60;3.33;;;7.30;99.90;;;;;;5061336;28;20389;-86
2021/07/04 10:39:43;;;;;;;5.85;3.63;;;7.20;99.90;;;;;;5052856;28;20414;-87
2021/07/04 10:42:12;;;;;;;5.32;4.10;;;7.20;99.90;;;;;;5063954;28;21265;-88
2021/07/04 10:44:43;;;;;;;8.27;5.20;;;7.10;99.90;;;;;;5060493;28;20384;-86
2021/07/04 10:47:12;;;;;;;7.88;4.25;;;7.10;99.90;;;;;;5052209;28;20482;-87
2021/07/04 10:49:46;;;;;;;4.77;3.70;;;7.00;99.90;;;;;;5056751;28;20449;-85
2021/07/04 10:52:15;;;;;;;5.28;3.22;;;6.90;99.90;;;;;;5054351;28;20390;-86
2021/07/04 10:54:46;;;;;;;4.57;2.85;;;6.90;99.90;;;;;;5060925;28;20397;-86
2021/07/04 10:57:32;;;;;;;5.10;2.80;;;6.80;99.90;;;;;;5048555;28;20412;-85
2021/07/04 11:00:05;;;;;;;4.43;2.78;;;6.80;99.90;;;;;;5060059;28;20403;-85
2021/07/04 11:02:57;;;;;;;3.58;2.50;;;6.80;99.90;;;;;;5058430;28;20399;-84
2021/07/04 11:05:40;;;;;;;5.13;2.67;;;6.80;99.90;;;;;;5054754;28;20412;-84
2021/07/04 11:08:18;;;;;;;2.53;2.25;;;6.70;99.90;;;;;;5051037;28;20838;-85
2021/07/04 11:10:52;;;;;;;2.97;2.40;;;6.70;99.90;;;;;;5059040;28;21104;-85
2021/07/04 11:13:19;;;;;;;3.70;2.47;;;6.70;99.90;;;;;;5057255;28;20447;-84
2021/07/04 11:15:52;;;;;;;2.87;2.47;;;6.70;99.90;;;;;;5057656;28;21067;-85
2021/07/04 11:18:20;;;;;;;3.45;2.22;;;6.60;99.90;;;;;;5046802;28;20796;-85
2021/07/04 11:20:49;;;;;;;3.65;2.42;;;6.60;99.90;;;;;;5052393;28;20406;-85
2021/07/04 11:23:24;;;;;;;5.00;2.60;;;6.60;99.90;;;;;;5060009;28;20920;-85
2021/07/04 11:25:57;;;;;;;6.25;2.90;;;6.60;99.90;;;;;;5050906;28;20395;-86
2021/07/04 11:28:28;;;;;;;3.87;2.53;;;6.60;99.90;;;;;;5049248;28;20548;-86
2021/07/04 11:31:02;;;;;;;6.05;2.85;;;6.50;99.90;;;;;;5059917;28;20382;-87
2021/07/04 11:33:47;;;;;;;3.53;2.28;;;6.50;99.90;;;;;;5049489;28;20395;-85
2021/07/04 11:36:23;;;;;;;3.15;2.10;;;6.50;99.90;;;;;;5047100;28;20467;-84
2021/07/04 11:39:08;;;;;;;4.83;2.80;;;6.50;99.90;;;;;;5063685;28;20429;-86
2021/07/04 11:41:50;;;;;;;3.33;2.30;;;6.50;99.90;;;;;;5059648;28;20968;-85
2021/07/04 11:44:20;;;;;;;3.50;2.58;;;6.40;99.90;;;;;;5057859;28;20382;-88
2021/07/04 11:46:51;;;;;;;3.95;2.63;;;6.40;99.90;;;;;;5055406;28;20455;-87
2021/07/04 11:49:20;;;;;;;5.00;2.47;;;6.40;99.90;;;;;;5054441;28;20777;-87
2021/07/04 11:52:01;;;;;;;3.83;2.47;;;6.40;99.90;;;;;;5052785;28;20472;-85
2021/07/04 11:54:34;;;;;;;2.65;2.20;;;6.40;99.90;;;;;;5047898;28;20493;-87
2021/07/04 12:00:00;;;;;;;4.93;1.70;;;6.40;99.90;;;;;;5063244;28;20454;-87
2021/07/04 12:02:28;;;;;;;2.67;2.10;;;6.40;99.90;;;;;;5059466;28;20400;-86
2021/07/04 12:04:56;;;;;;;3.00;1.57;;;6.50;99.90;;;;;;5051892;28;20399;-86
2021/07/04 12:07:25;;;;;;;2.72;1.92;;;6.50;99.90;;;;;;5057887;28;20489;-86
2021/07/04 12:10:01;;;;;;;2.00;1.60;;;6.40;99.90;;;;;;5053332;28;20496;-86
2021/07/04 12:12:31;;;;;;;2.53;1.90;;;6.30;99.90;;;;;;5058371;28;20945;-87
2021/07/04 12:15:05;;;;;;;1.63;1.52;;;6.30;99.90;;;;;;5072444;28;20919;-88
2021/07/04 12:17:37;;;;;;;2.70;1.90;;;6.30;99.90;;;;;;5064361;28;20393;-87
2021/07/04 12:20:10;;;;;;;2.20;1.67;;;6.30;99.90;;;;;;5051562;28;20407;-87
2021/07/04 12:23:02;;;;;;;1.48;1.30;;;6.30;99.90;;;;;;5065152;28;20402;-88
2021/07/04 12:25:33;;;;;;;2.40;1.27;;;6.30;99.90;;;;;;5052518;28;20392;-88
2021/07/04 12:28:14;;;;;;;2.30;1.60;;;6.20;99.90;;;;;;5058252;28;20771;-87
2021/07/04 12:30:44;;;;;;;2.15;1.42;;;6.30;99.90;;;;;;5053085;28;20402;-87
2021/07/04 12:33:18;;;;;;;2.45;1.40;;;6.20;99.90;;;;;;5057073;28;20765;-88
2021/07/04 12:35:51;;;;;;;2.53;1.40;;;6.20;99.90;;;;;;5058793;28;20395;-88
2021/07/04 12:38:27;;;;;;;2.20;1.50;;;6.20;99.90;;;;;;5054819;28;20473;-86
2021/07/04 12:40:57;;;;;;;2.35;1.40;;;6.20;99.90;;;;;;5070951;28;20409;-87
2021/07/04 12:43:33;;;;;;;2.17;1.67;;;6.10;99.90;;;;;;5051783;28;20968;-88
2021/07/04 12:46:01;;;;;;;2.85;1.80;;;6.10;99.90;;;;;;5054670;28;20398;-87
2021/07/04 12:48:31;;;;;;;2.13;1.70;;;6.10;99.90;;;;;;5056279;28;20390;-87
2021/07/04 12:51:04;;;;;;;2.55;1.48;;;6.00;99.90;;;;;;5057907;28;20447;-88
2021/07/04 12:53:39;;;;;;;2.45;1.73;;;6.00;99.90;;;;;;5053035;28;20396;-88
2021/07/04 12:56:17;;;;;;;2.35;1.50;;;6.00;99.90;;;;;;5061748;28;20398;-86
2021/07/04 12:58:53;;;;;;;1.98;1.20;;;6.00;99.90;;;;;;5059494;28;20487;-88
2021/07/04 13:01:22;;;;;;;2.88;1.33;;;6.00;99.90;;;;;;5051984;28;20408;-89
2021/07/04 13:03:57;;;;;;;2.58;1.48;;;6.00;99.90;;;;;;5051248;28;20406;-89
2021/07/04 13:06:35;;;;;;;2.22;1.45;;;5.90;99.90;;;;;;5050950;28;20474;-87